AirNav   Everest Fuels
 
 568 users online  

LA76 Spillers Club Airport
Breaux Bridge, Louisiana, USA

GOING TO BREAUX BRIDGE?


FAA INFORMATION EFFECTIVE 18 JUNE 2020

Location

FAA Identifier: LA76
Lat/Long: 30-13-45.7190N 091-54-30.4220W
30-13.761983N 091-54.507033W
30.2293664,-91.9084506
(estimated)
Elevation: 16 ft. / 5 m (estimated)
Variation: 04E (1985)
From city: 3 miles S of BREAUX BRIDGE, LA
Time zone: UTC -5 (UTC -6 during Standard Time)
Zip code: 70517

Airport Operations

Airport use: Private use. Permission required prior to landing
Activation date: 02/1963
Control tower: no
ARTCC: HOUSTON CENTER
FSS: DE RIDDER FLIGHT SERVICE STATION
Attendance: UNATNDD
Wind indicator: no
Segmented circle: no

Airport Communications

WX ASOS at LFT (4 nm W): 134.05 ((337)262-2757)
WX ASOS at ARA (12 nm S): 133.325 (337-365-0128)
WX AWOS-3 at IYA (18 nm SW): 118.875 (337-892-0526)

Nearby radio navigation aids

VOR radial/distance  VOR name  Freq  Var
LFTr061/4.9LAFAYETTE VORTAC109.8003E
LSUr238/35.3FIGHTING TIGER VORTAC116.5006E

 
NDB name  Hdg/Dist  Freq  Var  ID
LAFFS177/3.637503ELF .-.. ..-.
ABBEVILLE046/15.023002EBNZ -... -. --..
DURALDE123/34.326302EECY . -.-. -.--

Airport Services

Airframe service: NONE
Powerplant service: NONE

Runway Information

Runway 5/23

Dimensions: 4700 x 100 ft. / 1433 x 30 m
Surface: turf
RUNWAY 5  RUNWAY 23
Traffic pattern: leftright
Obstructions: trees
FOUR FT FENCE AT END OF RWY 23
none

Airport Ownership and Management from official FAA records

Ownership: Privately-owned
Owner: JULIAN T. SPILLERS JR.
1343A LAKE MARTIN ROAD
BREAUX BRIDGE, LA 70513
Phone (337) 257-7558
Manager: JULIAN T. SPILLERS JR.
1343A LAKE MARTIN ROAD
BREAUX BRIDGE, LA 70513
Phone (337) 257-7558

Airport Operational Statistics

Aircraft based on the field: 2
Single engine airplanes: 2
    

Additional Remarks

FOR CD CTC LAFAYETTE APCH AT 337-262-2729, WHEN APCH CLSD CTC HOUSTON ARTCC AT 281-230-5622.

Instrument Procedures

There are no published instrument procedures at LA76.

Some nearby airports with instrument procedures:

KLFT - Lafayette Regional Airport/Paul Fournet Field (4 nm W)
KARA - Acadiana Regional Airport (12 nm S)
KIYA - Abbeville Chris Crusta Memorial Airport (18 nm SW)
KOPL - St Landry Parish Airport-Ahart Field (22 nm NW)
4R7 - Eunice Airport (30 nm NW)
 
Loc | Ops | Rwys | IFR | FBO | Links
Com | Nav | Svcs | Stats | Notes
Area around LA76 (Spillers Club Airport)
 
Road maps at: MapQuest Bing Google
 
Aerial photo
No photo
 
Sectional chart

 
Airport distance calculator
Flying to Spillers Club Airport? Find the distance to fly.

From to LA76

Sunrise and sunset
Times for 05-Jul-2020
 Local
(UTC-5)
 Zulu
(UTC)
Morning civil twilight05:4510:45
Sunrise06:1311:13
Sunset20:1201:12
Evening civil twilight20:3901:39

Current date and time
Zulu (UTC)  05-Jul-2020 12:24:47
Local (UTC-5)  05-Jul-2020 07:24:47
 
METAR
KLFT 
5nm W 
051153Z 00000KT 7SM FEW014 FEW049 25/23 A2988 RMK AO2 LTG DSNT S AND SW SLP118 T02500233 10250 20244 53010
KARA 
12nm S 
051153Z 00000KT 10SM BKN017 BKN026 BKN031 26/23 A2989 RMK AO2 LTG DSNT SW SLP119 T02560228 10261 20244 53010 $
K0R3 
18nm SW 
118.875
No observation available
KIYA 
18nm SW 
051155Z AUTO 12004KT 10SM OVC015 24/20 A2989 RMK AO2 LTG DSNT SE THRU SW T02420201 10255 20240
TAF
KLFT 
5nm W 
051139Z 0512/0612 VRB03KT P6SM SCT250 FM051500 28006KT P6SM SCT025 FM051700 26009KT P6SM VCTS SCT035CB BKN200 FM060200 21004KT P6SM FEW050 BKN250 FM060900 24002KT P6SM BKN250
KARA 
12nm S 
051139Z 0512/0612 VRB04KT P6SM FEW050 SCT250 TEMPO 0512/0515 P6SM -TSRA BKN050CB FM051500 29006KT P6SM SCT025 FM051700 27009KT P6SM VCTS SCT035CB BKN200 FM060200 21004KT P6SM FEW050 BKN250 FM060900 24005KT P6SM BKN250
NOTAMs
Click for the latest NOTAMs
NOTAMs are issued by the DoD/FAA and will open in a separate window not controlled by AirNav.

 

 
 

Would you like to see your business listed on this page?

 If your business provides an interesting product or service to pilots, flight crews, aircraft, or users of the Spillers Club Airport, you should consider listing it here.  To start the listing process, click on the button below
 
Add a business
 

Other Pages about Spillers Club Airport

Update a link
 
Copyright © AirNav, LLC. All rights reserved. Privacy Policy  Contact